Aviation Digital Data Service (ADDS)

Output produced by METARs form (1100 UTC 25 October 2020)
found at http://aviationweather.gov/metar/data/
 
METAR text: KRNT 251053Z AUTO 00000KT 10SM CLR 01/M02 A3049 RMK AO2 SLP330 T00111022
Conditions at: KRNT (RENTON , WA, US) observed 1053 UTC 25 October 2020
Temperature: 1.1°C (34°F)
Dewpoint: -2.2°C (28°F) [RH = 79%]
Pressure (altimeter): 30.49 inches Hg (1032.6 mb)
[Sea-level pressure: 1033.0 mb]
Winds: calm
Visibility: 10 or more miles (16+ km)
Ceiling: at least 12,000 feet AGL
Clouds: sky clear below 12,000 feet AGL
Weather: automated observation with no human augmentation;
there may or may not be significant weather present at this time

METAR text: KRNT 250953Z AUTO 00000KT 10SM CLR 01/M02 A3048 RMK AO2 SLP326 T00111017
Conditions at: KRNT (RENTON , WA, US) observed 0953 UTC 25 October 2020
Temperature: 1.1°C (34°F)
Dewpoint: -1.7°C (29°F) [RH = 82%]
Pressure (altimeter): 30.48 inches Hg (1032.3 mb)
[Sea-level pressure: 1032.6 mb]
Winds: calm
Visibility: 10 or more miles (16+ km)
Ceiling: at least 12,000 feet AGL
Clouds: sky clear below 12,000 feet AGL
Weather: automated observation with no human augmentation;
there may or may not be significant weather present at this time